Terminal Aerodrome Forecast
Issued by NWS

Home | Current Version | Previous Version | Text Only | Print | Product List | Glossary On
Versions: 1 2 3 4 5 6 7 8 9 10 11 12 13 14 15 16 17 18 19 20 21 22 23 24 25 26 27 28
881
FTUS43 KABR 140219 AAA
TAFPIR
TAF AMD
KPIR 140219Z 1402/1424 VRB06KT 3SM -PLSN OVC019
      TEMPO 1402/1403 2SM -FZRAPLSN
     FM140300 VRB06KT 3/4SM -SN BR OVC010
      TEMPO 1403/1406 -TSSN BKN020 OVC040CB
     FM140900 26008KT P6SM OVC020
     FM141200 29012KT P6SM BKN040=

USA.gov is the U.S. government's official web portal to all federal, state and local government web resources and services.